Time;durP1;ratioP1;P1;durP2;ratioP2;P2;SDS_P1;SDS_P2;PMS_P1;PMS_P2;Temp;Humidity;BMP_temperature;BMP_pressure;BME280_temperature;BME280_humidity;BME280_pressure;Samples;Min_cycle;Max_cycle;Signal;HPM_P1;HPM_P2
2021/01/27 00:00:44;;;;;;;10.98;6.97;;;;;;;1.72;68.45;99195.47;5092174;28;20036;-63
2021/01/27 00:03:12;;;;;;;9.15;5.30;;;;;;;1.67;68.55;99198.47;5092082;28;20497;-63
2021/01/27 00:05:40;;;;;;;11.07;6.30;;;;;;;1.66;68.60;99194.19;5092028;28;20044;-62
2021/01/27 00:08:08;;;;;;;12.23;6.20;;;;;;;1.67;68.60;99185.44;5092221;28;20044;-63
2021/01/27 00:10:36;;;;;;;11.90;6.72;;;;;;;1.60;68.78;99193.88;5091984;28;20044;-63
2021/01/27 00:13:04;;;;;;;10.10;6.40;;;;;;;1.55;68.81;99185.59;5091969;28;20385;-63
2021/01/27 00:15:33;;;;;;;10.55;6.43;;;;;;;1.53;68.86;99177.91;5090519;28;20501;-62
2021/01/27 00:18:02;;;;;;;13.05;7.78;;;;;;;1.55;68.83;99176.03;5091943;28;20044;-64
2021/01/27 00:20:29;;;;;;;10.77;6.13;;;;;;;1.53;68.99;99164.06;5090979;28;20051;-63
2021/01/27 00:22:57;;;;;;;9.85;6.07;;;;;;;1.55;69.05;99157.78;5090847;28;20448;-64
2021/01/27 00:25:27;;;;;;;9.38;5.95;;;;;;;1.58;69.28;99151.47;5091932;28;20050;-64
2021/01/27 00:27:54;;;;;;;12.93;6.93;;;;;;;1.59;68.79;99155.72;5092130;28;20040;-64
2021/01/27 00:30:23;;;;;;;10.93;6.60;;;;;;;1.54;68.77;99155.28;5092079;28;20039;-64
2021/01/27 00:32:50;;;;;;;9.10;5.75;;;;;;;1.51;68.77;99153.78;5092032;28;20510;-63
2021/01/27 00:35:19;;;;;;;7.40;5.43;;;;;;;1.46;68.88;99151.53;5091724;28;20047;-64
2021/01/27 00:37:46;;;;;;;11.98;5.93;;;;;;;1.40;69.02;99156.44;5091986;28;20048;-63
2021/01/27 00:40:14;;;;;;;10.18;5.57;;;;;;;1.38;69.00;99151.31;5091896;28;20037;-63
2021/01/27 00:42:41;;;;;;;10.73;5.80;;;;;;;1.31;69.28;99151.97;5091832;28;20051;-64
2021/01/27 00:45:09;;;;;;;8.38;5.57;;;;;;;1.37;69.25;99156.66;5090483;28;20040;-63
2021/01/27 00:47:36;;;;;;;11.27;6.38;;;;;;;1.39;69.21;99157.38;5091840;28;20070;-62
2021/01/27 00:50:04;;;;;;;9.68;6.13;;;;;;;1.33;69.20;99148.28;5090853;28;20037;-64
2021/01/27 00:52:31;;;;;;;8.65;5.43;;;;;;;1.34;69.32;99157.75;5092213;28;20036;-63
2021/01/27 00:54:59;;;;;;;8.25;5.68;;;;;;;1.30;69.31;99147.69;5092293;28;20416;-63
2021/01/27 00:57:25;;;;;;;12.70;7.35;;;;;;;1.28;69.45;99141.81;5094752;28;20056;-64
2021/01/27 00:59:52;;;;;;;10.75;5.45;;;;;;;1.24;69.43;99142.03;5094442;28;20040;-63
2021/01/27 01:02:19;;;;;;;9.25;6.03;;;;;;;1.27;69.58;99132.34;5095841;28;20044;-64
2021/01/27 01:04:52;;;;;;;9.15;5.82;;;;;;;1.28;69.60;99126.19;5094314;28;20044;-63
2021/01/27 01:07:19;;;;;;;12.88;6.13;;;;;;;1.34;69.47;99125.66;5095564;28;20051;-63
2021/01/27 01:09:45;;;;;;;7.30;5.45;;;;;;;1.33;69.62;99127.44;5095523;28;20044;-64
2021/01/27 01:12:13;;;;;;;11.13;6.43;;;;;;;1.28;69.41;99128.78;5094314;28;20046;-63
2021/01/27 01:14:40;;;;;;;11.05;6.57;;;;;;;1.18;69.75;99129.53;5095306;28;20044;-63
2021/01/27 01:17:06;;;;;;;10.93;6.75;;;;;;;1.17;69.73;99124.44;5095620;28;20040;-63
2021/01/27 01:19:33;;;;;;;9.20;5.95;;;;;;;1.06;69.94;99121.88;5096037;28;20440;-64
2021/01/27 01:22:00;;;;;;;10.85;5.95;;;;;;;1.09;70.23;99127.66;5095595;28;20410;-64
2021/01/27 01:24:26;;;;;;;7.53;5.90;;;;;;;1.16;70.06;99125.41;5095283;28;20044;-64
2021/01/27 01:26:53;;;;;;;9.63;6.47;;;;;;;1.20;69.99;99111.19;5094288;28;20498;-63
2021/01/27 01:29:20;;;;;;;9.77;6.05;;;;;;;1.28;69.97;99113.97;5095306;28;20036;-64
2021/01/27 01:31:47;;;;;;;11.10;6.22;;;;;;;1.29;69.85;99110.41;5094043;28;20494;-63
2021/01/27 01:34:14;;;;;;;9.80;6.13;;;;;;;1.23;69.84;99113.53;5094924;28;20052;-64
2021/01/27 01:36:41;;;;;;;9.52;6.35;;;;;;;1.19;69.75;99120.78;5095151;28;20406;-63
2021/01/27 01:39:08;;;;;;;8.90;5.95;;;;;;;1.14;69.97;99122.94;5095538;28;20044;-63
2021/01/27 01:41:34;;;;;;;10.55;6.28;;;;;;;1.07;70.05;99121.75;5096073;28;20048;-64
2021/01/27 01:44:01;;;;;;;13.70;6.50;;;;;;;1.13;70.09;99130.84;5099450;28;20048;-63
2021/01/27 01:46:29;;;;;;;10.93;6.65;;;;;;;1.11;70.31;99117.13;5099699;28;20052;-63
2021/01/27 01:49:00;;;;;;;10.95;5.90;;;;;;;1.03;70.42;99117.75;5097690;28;20059;-64
2021/01/27 01:51:31;;;;;;;7.85;5.72;;;;;;;1.08;70.52;99112.19;5094706;28;20044;-63
2021/01/27 01:54:01;;;;;;;12.75;6.55;;;;;;;1.10;70.48;99102.44;5095166;28;20538;-63
2021/01/27 01:56:32;;;;;;;10.00;6.45;;;;;;;1.15;70.41;99105.53;5101969;28;20052;-63
2021/01/27 01:59:04;;;;;;;11.60;6.25;;;;;;;1.24;70.37;99110.78;5100472;28;20051;-63
2021/01/27 02:01:31;;;;;;;8.18;5.70;;;;;;;1.23;70.18;99106.53;5096262;28;20043;-64
2021/01/27 02:03:59;;;;;;;7.53;5.50;;;;;;;1.22;69.97;99091.88;5095477;28;20048;-64
2021/01/27 02:06:26;;;;;;;9.95;6.28;;;;;;;1.19;70.02;99092.13;5094745;28;20048;-63
2021/01/27 02:08:56;;;;;;;9.35;6.10;;;;;;;1.12;70.24;99085.75;5094984;28;20478;-64
2021/01/27 02:11:34;;;;;;;10.90;5.97;;;;;;;1.09;70.36;99090.38;5094652;28;20043;-64
2021/01/27 02:14:15;;;;;;;9.00;5.95;;;;;;;1.06;70.41;99094.09;5095599;28;20236;-64
2021/01/27 02:16:50;;;;;;;13.43;5.97;;;;;;;1.07;70.42;99090.53;5094436;28;20051;-63
2021/01/27 02:19:46;;;;;;;8.63;6.35;;;;;;;1.08;70.38;99081.75;5095050;28;20547;-63
2021/01/27 02:22:44;;;;;;;11.32;5.82;;;;;;;1.17;70.47;99085.38;5098623;28;20047;-64
2021/01/27 02:25:52;;;;;;;11.15;6.20;;;;;;;1.22;70.67;99081.47;5064966;28;20060;-63
2021/01/27 02:28:40;;;;;;;9.18;6.03;;;;;;;1.22;70.36;99076.25;5080304;28;20067;-64
2021/01/27 02:31:14;;;;;;;9.65;6.40;;;;;;;1.25;70.41;99077.75;5077514;28;20048;-64
2021/01/27 02:34:12;;;;;;;14.48;5.95;;;;;;;1.37;70.36;99079.34;5094213;28;20056;-63
2021/01/27 02:36:43;;;;;;;9.73;5.88;;;;;;;1.30;70.13;99066.97;5094143;28;20044;-63
2021/01/27 02:39:16;;;;;;;11.23;6.10;;;;;;;1.28;70.21;99072.31;5094759;28;20048;-64
2021/01/27 02:41:50;;;;;;;11.33;6.10;;;;;;;1.29;70.30;99073.13;5094207;28;20448;-63
2021/01/27 02:44:21;;;;;;;8.35;6.05;;;;;;;1.32;70.29;99065.06;5093688;28;20048;-63
2021/01/27 02:46:52;;;;;;;10.02;6.18;;;;;;;1.37;70.34;99061.13;5093799;28;20040;-64
2021/01/27 02:49:26;;;;;;;9.32;5.93;;;;;;;1.38;70.23;99054.94;5094031;28;20040;-63
2021/01/27 02:52:00;;;;;;;11.90;6.28;;;;;;;1.35;70.22;99054.41;5093670;28;20044;-64
2021/01/27 02:54:34;;;;;;;13.38;6.65;;;;;;;1.35;70.41;99050.00;5093770;28;20048;-64
2021/01/27 02:57:08;;;;;;;12.30;7.57;;;;;;;1.37;70.50;99049.88;5094065;28;20059;-64
2021/01/27 02:59:41;;;;;;;11.27;6.57;;;;;;;1.47;70.49;99054.19;5093702;28;20040;-63
2021/01/27 03:02:13;;;;;;;9.43;5.90;;;;;;;1.39;70.38;99054.00;5093482;28;20048;-64
2021/01/27 03:04:47;;;;;;;12.02;6.38;;;;;;;1.38;70.42;99041.91;5093441;28;20048;-63
2021/01/27 03:07:18;;;;;;;14.57;7.22;;;;;;;1.40;70.27;99045.22;5095236;28;20059;-62
2021/01/27 03:09:48;;;;;;;10.60;5.88;;;;;;;1.38;70.68;99036.72;5094047;28;20036;-62
2021/01/27 03:12:16;;;;;;;11.95;6.60;;;;;;;1.36;70.53;99037.81;5093595;28;20579;-62
2021/01/27 03:14:45;;;;;;;12.18;6.18;;;;;;;1.45;70.66;99034.44;5093487;28;20493;-63
2021/01/27 03:17:15;;;;;;;12.88;6.80;;;;;;;1.51;70.48;99018.28;5095641;28;20036;-63
2021/01/27 03:19:50;;;;;;;10.77;6.68;;;;;;;1.59;70.34;99021.06;5095323;28;20048;-62
2021/01/27 03:22:22;;;;;;;12.13;6.25;;;;;;;1.53;70.06;99026.78;5095315;28;20040;-66
2021/01/27 03:24:54;;;;;;;7.85;5.93;;;;;;;1.48;70.32;99023.75;5093158;28;20044;-63
2021/01/27 03:27:23;;;;;;;12.23;5.93;;;;;;;1.55;70.28;99024.03;5093021;28;20052;-65
2021/01/27 03:29:52;;;;;;;11.55;6.30;;;;;;;1.61;70.16;99020.94;5092932;28;20048;-63
2021/01/27 03:32:29;;;;;;;12.35;6.07;;;;;;;1.71;70.18;99013.97;5093272;28;20047;-64
2021/01/27 03:35:02;;;;;;;10.63;6.20;;;;;;;1.74;70.05;99008.50;5092851;28;20050;-64
2021/01/27 03:37:36;;;;;;;11.48;6.55;;;;;;;1.79;69.86;99011.53;5093044;28;20536;-63
2021/01/27 03:40:09;;;;;;;11.80;6.00;;;;;;;1.82;69.55;99003.44;5093298;28;20036;-63
2021/01/27 03:42:45;;;;;;;7.72;5.95;;;;;;;1.82;69.62;99000.84;5093302;28;20051;-64
2021/01/27 03:45:15;;;;;;;10.57;6.28;;;;;;;1.83;69.96;99012.09;5092822;28;20052;-65
2021/01/27 03:47:51;;;;;;;15.63;7.38;;;;;;;1.81;69.83;99003.59;5093301;28;20170;-64
2021/01/27 03:50:22;;;;;;;13.60;6.85;;;;;;;1.78;70.15;99001.25;5093054;28;20044;-64
2021/01/27 03:52:53;;;;;;;12.55;7.45;;;;;;;1.80;70.15;98989.75;5091493;28;20431;-64
2021/01/27 03:55:25;;;;;;;12.60;6.72;;;;;;;1.67;70.74;98989.97;5092389;28;20051;-64
2021/01/27 03:58:02;;;;;;;10.95;6.40;;;;;;;1.68;71.12;98991.63;5092708;28;20044;-64
2021/01/27 04:00:31;;;;;;;18.48;7.50;;;;;;;1.62;71.52;98991.31;5092746;28;20048;-63
2021/01/27 04:03:01;;;;;;;18.90;7.68;;;;;;;1.70;71.88;98973.22;5092751;28;20505;-64
2021/01/27 04:05:27;;;;;;;12.98;7.93;;;;;;;1.74;71.84;98974.63;5092571;28;20043;-65
2021/01/27 04:07:55;;;;;;;17.90;8.02;;;;;;;1.74;72.21;98982.44;5092703;28;20050;-64
2021/01/27 04:10:22;;;;;;;14.73;8.20;;;;;;;1.58;72.58;98976.88;5092873;28;20406;-64
2021/01/27 04:12:48;;;;;;;15.75;7.40;;;;;;;1.55;73.07;98977.13;5091211;28;20405;-64
2021/01/27 04:15:15;;;;;;;16.80;8.57;;;;;;;1.53;73.45;98972.06;5092255;28;20051;-64
2021/01/27 04:17:43;;;;;;;16.23;8.68;;;;;;;1.46;73.86;98961.34;5093368;28;20040;-65
2021/01/27 04:20:11;;;;;;;15.52;9.05;;;;;;;1.47;74.04;98952.59;5092562;28;20037;-64
2021/01/27 04:22:37;;;;;;;15.48;8.55;;;;;;;1.44;74.30;98958.06;5092538;28;20486;-65
2021/01/27 04:25:07;;;;;;;18.17;8.95;;;;;;;1.53;74.38;98966.88;5091973;28;20486;-65
2021/01/27 04:27:33;;;;;;;13.38;8.45;;;;;;;1.60;74.56;98943.72;5092106;28;20055;-64
2021/01/27 04:30:01;;;;;;;18.13;8.13;;;;;;;1.67;74.38;98923.97;5093295;28;20040;-64
2021/01/27 04:32:28;;;;;;;14.07;9.15;;;;;;;1.72;74.24;98919.22;5096298;28;20044;-64
2021/01/27 04:34:55;;;;;;;20.75;9.43;;;;;;;1.71;74.29;98917.53;5096081;28;20051;-64
2021/01/27 04:37:22;;;;;;;12.70;7.95;;;;;;;1.70;74.40;98916.72;5094753;28;20134;-64
2021/01/27 04:39:48;;;;;;;15.77;8.43;;;;;;;1.75;74.03;98913.69;5096119;28;20036;-64
2021/01/27 04:42:21;;;;;;;14.95;7.72;;;;;;;1.69;74.32;98932.50;5095933;28;20047;-63
2021/01/27 04:44:48;;;;;;;12.65;8.05;;;;;;;1.68;74.32;98936.88;5095754;28;20400;-62
2021/01/27 04:47:24;;;;;;;12.07;7.78;;;;;;;1.62;74.45;98929.59;5095843;28;20494;-63
2021/01/27 04:49:56;;;;;;;14.85;8.48;;;;;;;1.65;74.76;98928.50;5095884;28;20044;-63
2021/01/27 04:52:38;;;;;;;12.80;7.80;;;;;;;1.69;74.61;98919.47;5095564;28;20051;-63
2021/01/27 04:55:21;;;;;;;14.73;7.95;;;;;;;1.66;74.47;98910.13;5095544;28;20382;-64
2021/01/27 04:58:01;;;;;;;15.13;7.47;;;;;;;1.71;74.37;98896.69;5095491;28;20055;-64
2021/01/27 05:00:45;;;;;;;10.07;6.80;;;;;;;1.66;74.43;98894.47;5095462;28;20044;-63
2021/01/27 05:03:28;;;;;;;12.30;7.57;;;;;;;1.62;74.64;98887.06;5095365;28;20045;-64
2021/01/27 05:06:02;;;;;;;13.35;8.63;;;;;;;1.57;74.73;98894.47;5095172;28;20048;-63
2021/01/27 05:08:32;;;;;;;11.45;7.75;;;;;;;1.55;74.95;98893.75;5095304;28;20036;-62
2021/01/27 05:11:02;;;;;;;15.38;8.32;;;;;;;1.55;75.04;98892.00;5095283;28;20036;-63
2021/01/27 05:13:32;;;;;;;20.67;8.63;;;;;;;1.61;74.98;98886.25;5095066;28;20036;-63
2021/01/27 05:16:01;;;;;;;16.40;8.68;;;;;;;1.64;74.76;98872.13;5095004;28;20040;-64
2021/01/27 05:18:28;;;;;;;12.00;7.63;;;;;;;1.61;74.80;98867.19;5095108;28;20064;-64
2021/01/27 05:20:55;;;;;;;16.23;8.77;;;;;;;1.58;74.82;98870.06;5095026;28;20036;-63
2021/01/27 05:23:22;;;;;;;14.65;7.30;;;;;;;1.58;74.88;98872.66;5095003;28;20048;-63
2021/01/27 05:26:00;;;;;;;12.30;7.25;;;;;;;1.65;74.98;98872.00;5096097;28;20284;-64
2021/01/27 05:28:33;;;;;;;12.43;7.82;;;;;;;1.70;74.51;98858.56;5095482;28;20059;-63
2021/01/27 05:30:59;;;;;;;14.10;7.40;;;;;;;1.64;74.65;98846.09;5096555;28;20040;-63
2021/01/27 05:33:45;;;;;;;14.50;7.80;;;;;;;1.61;74.84;98848.94;5095425;28;20478;-64
2021/01/27 05:36:16;;;;;;;12.43;7.53;;;;;;;1.59;74.76;98841.28;5094429;28;20052;-64
2021/01/27 05:38:43;;;;;;;13.50;7.25;;;;;;;1.60;74.94;98834.28;5094730;28;20101;-64
2021/01/27 05:41:19;;;;;;;14.25;8.07;;;;;;;1.59;75.06;98833.47;5094484;28;20039;-63
2021/01/27 05:43:49;;;;;;;15.10;8.35;;;;;;;1.61;74.92;98839.34;5094379;28;20421;-64
2021/01/27 05:46:17;;;;;;;11.75;7.57;;;;;;;1.61;74.89;98835.91;5094359;28;20044;-64
2021/01/27 05:48:48;;;;;;;14.57;8.55;;;;;;;1.69;75.01;98841.28;5094608;28;20101;-64
2021/01/27 05:51:26;;;;;;;12.73;7.88;;;;;;;1.77;74.99;98830.19;5092929;28;20043;-65
2021/01/27 05:53:55;;;;;;;15.73;9.02;;;;;;;1.84;74.72;98826.09;5094468;28;20044;-63
2021/01/27 05:56:23;;;;;;;14.77;7.85;;;;;;;1.85;74.53;98825.13;5094197;28;20047;-64
2021/01/27 05:59:00;;;;;;;10.68;7.72;;;;;;;1.83;74.44;98813.97;5094352;28;20402;-63
2021/01/27 06:01:32;;;;;;;15.00;7.95;;;;;;;1.87;74.58;98815.34;5094286;28;20051;-64
2021/01/27 06:04:03;;;;;;;13.35;7.65;;;;;;;1.88;74.67;98810.03;5094415;28;20051;-64
2021/01/27 06:06:34;;;;;;;12.88;7.72;;;;;;;1.91;74.63;98804.50;5093942;28;20494;-64
2021/01/27 06:09:04;;;;;;;12.15;7.50;;;;;;;1.86;74.34;98809.31;5092884;28;20040;-64
2021/01/27 06:11:30;;;;;;;13.85;7.82;;;;;;;1.89;74.44;98803.03;5094156;28;20405;-64
2021/01/27 06:14:08;;;;;;;15.10;7.63;;;;;;;1.87;74.48;98784.06;5094013;28;20048;-64
2021/01/27 06:16:41;;;;;;;16.60;7.80;;;;;;;1.87;74.35;98790.09;5093886;28;20135;-64
2021/01/27 06:19:16;;;;;;;9.60;7.00;;;;;;;1.89;74.32;98788.19;5092749;28;20044;-64
2021/01/27 06:22:18;;;;;;;12.00;6.70;;;;;;;1.82;74.38;98771.47;5093878;28;20040;-64
2021/01/27 06:25:14;;;;;;;12.05;6.95;;;;;;;1.83;74.45;98774.88;5093711;28;20043;-64
2021/01/27 06:27:56;;;;;;;10.80;6.78;;;;;;;1.79;74.58;98770.91;5093876;28;20052;-64
2021/01/27 06:30:44;;;;;;;8.05;6.07;;;;;;;1.82;74.57;98762.81;5093866;28;20044;-64
2021/01/27 06:33:45;;;;;;;13.07;7.10;;;;;;;1.79;74.68;98760.47;5083619;28;20067;-63
2021/01/27 06:36:30;;;;;;;11.45;6.57;;;;;;;1.72;74.87;98757.63;5093261;28;20044;-64
2021/01/27 06:39:08;;;;;;;10.85;7.30;;;;;;;1.72;74.76;98761.03;5093492;28;20051;-64
2021/01/27 06:41:55;;;;;;;11.50;6.80;;;;;;;1.67;74.94;98765.84;5092244;28;20048;-64
2021/01/27 06:44:33;;;;;;;10.02;6.95;;;;;;;1.69;75.01;98755.28;5093315;28;20047;-64
2021/01/27 06:47:40;;;;;;;8.93;5.45;;;;;;;1.70;75.00;98762.13;5093406;28;20044;-64
2021/01/27 06:50:25;;;;;;;10.63;6.25;;;;;;;1.70;74.92;98778.59;5091867;28;20139;-64
2021/01/27 06:53:31;;;;;;;7.35;5.30;;;;;;;1.68;74.91;98782.31;5093231;28;20048;-64
2021/01/27 06:56:09;;;;;;;8.90;5.57;;;;;;;1.67;75.06;98788.47;5090159;28;20059;-63
2021/01/27 06:59:02;;;;;;;10.68;6.13;;;;;;;1.62;75.03;98788.06;5093194;28;20048;-64
2021/01/27 07:01:47;;;;;;;10.15;5.97;;;;;;;1.65;75.37;98785.19;5049179;28;20056;-63
2021/01/27 07:04:40;;;;;;;6.13;4.80;;;;;;;1.61;75.36;98776.81;5092840;28;20082;-63
2021/01/27 07:07:30;;;;;;;8.25;6.03;;;;;;;1.57;75.55;98769.41;5093033;28;20406;-64
2021/01/27 07:10:25;;;;;;;6.40;5.22;;;;;;;1.55;75.71;98773.91;5092884;28;20070;-64
2021/01/27 07:13:03;;;;;;;10.55;6.53;;;;;;;1.57;75.90;98772.00;5092944;28;20520;-63
2021/01/27 07:15:39;;;;;;;15.07;11.23;;;;;;;1.60;75.87;98766.53;5092741;28;20509;-62
2021/01/27 07:18:34;;;;;;;9.90;7.13;;;;;;;1.61;75.93;98766.38;5092826;28;20525;-64
2021/01/27 07:21:05;;;;;;;8.20;5.63;;;;;;;1.61;75.87;98762.97;5092867;28;20044;-64
2021/01/27 07:23:41;;;;;;;9.23;5.60;;;;;;;1.64;75.82;98766.13;5092784;28;20089;-64
2021/01/27 07:26:15;;;;;;;8.80;5.70;;;;;;;1.57;75.92;98759.81;5092461;28;20082;-64
2021/01/27 07:28:53;;;;;;;5.82;4.38;;;;;;;1.51;76.08;98754.31;5091391;28;20095;-63
2021/01/27 07:31:24;;;;;;;7.50;4.40;;;;;;;1.46;76.35;98765.94;5092571;28;20047;-63
2021/01/27 07:33:57;;;;;;;7.25;4.47;;;;;;;1.49;76.28;98763.09;5092462;28;20047;-64
2021/01/27 07:36:36;;;;;;;7.63;4.90;;;;;;;1.59;76.38;98773.53;5092243;28;20040;-63
2021/01/27 07:39:12;;;;;;;7.15;3.90;;;;;;;1.58;76.25;98777.06;5092556;28;20044;-63
2021/01/27 07:41:49;;;;;;;6.75;4.60;;;;;;;1.56;76.25;98779.00;5092427;28;20051;-64
2021/01/27 07:44:18;;;;;;;8.40;4.30;;;;;;;1.57;76.32;98772.00;5092159;28;20046;-64
2021/01/27 07:46:52;;;;;;;5.40;3.83;;;;;;;1.59;76.43;98770.06;5092431;28;20047;-62
2021/01/27 07:49:23;;;;;;;;;;;;;;;1.57;76.49;98779.81;5093964;28;20486;-63
2021/01/27 07:51:54;;;;;;;6.57;4.38;;;;;;;1.59;76.45;98783.09;5093387;28;20401;-63
2021/01/27 07:54:25;;;;;;;7.53;4.75;;;;;;;1.58;76.68;98784.88;5094479;28;20048;-64
2021/01/27 07:57:00;;;;;;;4.60;3.30;;;;;;;1.64;76.72;98781.75;5092481;28;20044;-64
2021/01/27 07:59:32;;;;;;;7.53;4.07;;;;;;;1.60;76.70;98787.38;5092770;28;20383;-63
2021/01/27 08:02:07;;;;;;;6.22;4.57;;;;;;;1.65;76.94;98772.97;5092271;28;20044;-63
2021/01/27 08:04:41;;;;;;;6.55;3.80;;;;;;;1.66;76.96;98781.59;5091289;28;20056;-64
2021/01/27 08:07:18;;;;;;;6.00;4.03;;;;;;;1.69;76.88;98774.34;5092149;28;20036;-62
2021/01/27 08:09:45;;;;;;;7.28;3.38;;;;;;;1.70;77.03;98777.78;5092656;28;20197;-63
2021/01/27 08:12:18;;;;;;;3.80;3.22;;;;;;;1.71;76.95;98777.66;5092736;28;20048;-63
2021/01/27 08:15:05;;;;;;;4.30;3.17;;;;;;;1.78;76.77;98767.47;5091315;28;20467;-63
2021/01/27 08:18:00;;;;;;;7.38;4.43;;;;;;;1.73;76.83;98761.88;5092653;28;20518;-63
2021/01/27 08:20:29;;;;;;;4.65;2.85;;;;;;;1.68;76.96;98751.03;5091363;28;20573;-63
2021/01/27 08:22:58;;;;;;;4.75;2.60;;;;;;;1.69;76.97;98753.50;5092882;28;20048;-62
2021/01/27 08:25:52;;;;;;;4.80;2.45;;;;;;;1.73;77.12;98739.22;5092553;28;20382;-63
2021/01/27 08:28:25;;;;;;;3.33;2.55;;;;;;;1.78;77.06;98728.38;5093257;28;20114;-63
2021/01/27 08:31:18;;;;;;;4.88;3.10;;;;;;;1.81;76.76;98725.50;5093078;28;20460;-62
2021/01/27 08:33:55;;;;;;;8.57;5.32;;;;;;;1.91;76.67;98717.66;5093099;28;20036;-62
2021/01/27 08:37:03;;;;;;;7.15;4.28;;;;;;;1.91;76.54;98722.88;5092588;28;20078;-63
2021/01/27 08:39:32;;;;;;;8.85;3.60;;;;;;;1.93;76.43;98724.41;5086907;28;20052;-63
2021/01/27 08:42:01;;;;;;;3.92;2.03;;;;;;;1.93;76.24;98718.38;5093040;28;20135;-62
2021/01/27 08:44:33;;;;;;;2.53;1.95;;;;;;;1.96;75.88;98713.69;5091686;28;20047;-64
2021/01/27 08:47:02;;;;;;;1.90;1.70;;;;;;;1.98;75.83;98697.91;5091752;28;20051;-63
2021/01/27 08:49:45;;;;;;;3.67;1.80;;;;;;;2.09;75.72;98705.56;5091592;28;20062;-63
2021/01/27 08:52:35;;;;;;;2.00;1.80;;;;;;;2.20;75.50;98704.56;5091510;28;20036;-63
2021/01/27 08:55:47;;;;;;;2.90;1.92;;;;;;;2.24;75.59;98705.91;5091392;28;20055;-63
2021/01/27 08:58:24;;;;;;;1.70;1.27;;;;;;;2.25;75.17;98714.59;5091623;28;20047;-62
2021/01/27 09:00:53;;;;;;;1.50;1.30;;;;;;;2.19;75.20;98718.56;5092097;28;20048;-63
2021/01/27 09:03:56;;;;;;;1.30;1.20;;;;;;;2.06;75.35;98721.50;5092192;28;20040;-63
2021/01/27 09:06:29;;;;;;;8.75;2.78;;;;;;;1.99;75.66;98723.00;5091787;28;20106;-63
2021/01/27 09:09:09;;;;;;;3.17;1.83;;;;;;;2.06;75.72;98718.88;5093769;28;20056;-63
2021/01/27 09:11:36;;;;;;;2.33;1.50;;;;;;;2.08;75.64;98719.56;5095721;28;20048;-63
2021/01/27 09:14:06;;;;;;;2.67;1.75;;;;;;;2.05;75.44;98719.03;5094816;28;20048;-62
2021/01/27 09:16:34;;;;;;;1.83;1.40;;;;;;;1.97;75.39;98715.34;5091335;28;20044;-63
2021/01/27 09:19:08;;;;;;;2.80;1.95;;;;;;;1.92;75.75;98712.34;5095091;28;20044;-62
2021/01/27 09:21:35;;;;;;;10.10;5.00;;;;;;;1.89;75.89;98712.59;5095052;28;20032;-61
2021/01/27 09:24:04;;;;;;;3.38;2.10;;;;;;;1.95;75.60;98703.38;5095050;28;20130;-61
2021/01/27 09:26:39;;;;;;;1.83;1.60;;;;;;;1.96;75.27;98698.06;5094773;28;20055;-62
2021/01/27 09:29:07;;;;;;;;;;;;;;;1.96;75.34;98684.19;5095540;28;20059;-61
2021/01/27 09:31:33;;;;;;;2.33;1.75;;;;;;;2.02;75.43;98685.41;5093603;28;19925;-63
2021/01/27 09:34:13;;;;;;;2.80;1.67;;;;;;;2.04;75.38;98688.69;5094837;28;20043;-62
2021/01/27 09:36:41;;;;;;;3.22;2.03;;;;;;;2.11;75.50;98689.78;5095109;28;20104;-61
2021/01/27 09:39:10;;;;;;;2.95;1.52;;;;;;;2.11;75.08;98689.78;5094735;28;20059;-61
2021/01/27 09:41:42;;;;;;;2.33;1.67;;;;;;;2.17;75.07;98684.81;5094685;28;20490;-62
2021/01/27 09:44:21;;;;;;;1.33;1.20;;;;;;;2.20;74.81;98686.31;5094506;28;20046;-61
2021/01/27 09:46:48;;;;;;;1.85;1.30;;;;;;;2.17;74.68;98689.22;5093431;28;20110;-62
2021/01/27 09:49:15;;;;;;;1.80;1.45;;;;;;;2.15;74.53;98688.53;5094755;28;20451;-62
2021/01/27 09:51:51;;;;;;;1.98;1.33;;;;;;;2.08;74.67;98706.53;5094361;28;20101;-63
2021/01/27 09:54:20;;;;;;;1.73;1.40;;;;;;;2.02;74.72;98707.09;5094400;28;20048;-63
2021/01/27 09:56:52;;;;;;;2.25;1.90;;;;;;;2.18;74.87;98703.91;5094381;28;20452;-62
2021/01/27 09:59:20;;;;;;;2.45;1.42;;;;;;;2.20;74.61;98707.16;5094355;28;20044;-64
2021/01/27 10:01:49;;;;;;;2.28;1.63;;;;;;;2.16;74.54;98700.59;5094433;28;20036;-63
2021/01/27 10:04:29;;;;;;;2.63;2.03;;;;;;;2.27;74.19;98699.63;5094068;28;20051;-64
2021/01/27 10:07:06;;;;;;;2.47;2.10;;;;;;;2.29;74.10;98695.91;5094119;28;20036;-63
2021/01/27 10:09:41;;;;;;;3.65;1.67;;;;;;;2.24;73.89;98692.88;5094136;28;20397;-64
2021/01/27 10:12:12;;;;;;;2.15;1.80;;;;;;;2.32;73.83;98703.44;5094501;28;20097;-64
2021/01/27 10:14:42;;;;;;;3.45;2.22;;;;;;;2.33;74.00;98705.09;5093790;28;20448;-64
2021/01/27 10:17:11;;;;;;;3.78;2.10;;;;;;;2.35;74.08;98704.94;5094052;28;20040;-64
2021/01/27 10:19:45;;;;;;;2.42;2.22;;;;;;;2.35;74.01;98721.41;5093961;28;20112;-64
2021/01/27 10:22:12;;;;;;;2.42;1.80;;;;;;;2.33;73.97;98717.31;5094236;28;20374;-64
2021/01/27 10:24:45;;;;;;;6.93;3.30;;;;;;;2.34;73.95;98709.34;5093654;28;20040;-63
2021/01/27 10:27:19;;;;;;;3.40;2.85;;;;;;;2.30;73.97;98718.41;5094150;28;20048;-63
2021/01/27 10:29:46;;;;;;;7.90;5.22;;;;;;;2.34;74.24;98717.16;5093382;28;20047;-63
2021/01/27 10:32:36;;;;;;;9.60;6.93;;;;;;;2.42;74.39;98719.06;5093771;28;20456;-63
2021/01/27 10:35:29;;;;;;;18.25;14.52;;;;;;;2.46;74.32;98710.81;5088908;28;20418;-63
2021/01/27 10:38:18;;;;;;;4.03;3.33;;;;;;;2.42;74.10;98724.28;5093565;28;20055;-63
2021/01/27 10:41:08;;;;;;;4.45;3.90;;;;;;;2.43;74.18;98721.53;5093612;28;20048;-63
2021/01/27 10:43:34;;;;;;;3.15;2.85;;;;;;;2.39;74.06;98719.34;5093476;28;20493;-63
2021/01/27 10:46:21;;;;;;;2.35;2.10;;;;;;;2.38;74.37;98722.91;5093195;28;20323;-63
2021/01/27 10:48:48;;;;;;;1.90;1.80;;;;;;;2.35;74.35;98718.81;5093397;28;20044;-63
2021/01/27 10:51:16;;;;;;;3.08;2.53;;;;;;;2.31;74.48;98714.84;5093170;28;20105;-63
2021/01/27 10:53:44;;;;;;;5.05;2.58;;;;;;;2.26;74.47;98718.84;5093505;28;20131;-63
2021/01/27 10:56:12;;;;;;;1.90;1.65;;;;;;;2.16;74.22;98727.53;5093061;28;20068;-64
2021/01/27 10:58:39;;;;;;;2.97;1.67;;;;;;;2.11;74.84;98723.66;5093179;28;20089;-63
2021/01/27 11:01:06;;;;;;;3.85;2.88;;;;;;;2.18;74.90;98727.38;5093281;28;20040;-62
2021/01/27 11:03:33;;;;;;;2.92;2.30;;;;;;;2.14;74.74;98729.44;5093153;28;20054;-63
2021/01/27 11:06:02;;;;;;;2.25;1.98;;;;;;;2.16;74.70;98722.31;5093089;28;20044;-63
2021/01/27 11:08:32;;;;;;;5.65;4.20;;;;;;;2.19;74.76;98711.56;5093137;28;20051;-63
2021/01/27 11:11:01;;;;;;;4.90;3.00;;;;;;;2.23;74.72;98707.72;5092986;28;20036;-64
2021/01/27 11:13:31;;;;;;;2.45;2.25;;;;;;;2.25;74.44;98702.38;5093060;28;20051;-64
2021/01/27 11:15:57;;;;;;;2.70;2.38;;;;;;;2.23;74.31;98701.69;5092934;28;20036;-64
2021/01/27 11:18:24;;;;;;;5.45;3.10;;;;;;;2.11;74.32;98703.63;5092922;28;20420;-64
2021/01/27 11:20:51;;;;;;;3.60;3.30;;;;;;;2.02;74.51;98708.88;5092872;28;20439;-64
2021/01/27 11:23:20;;;;;;;2.75;2.47;;;;;;;2.07;74.87;98704.06;5092963;28;20036;-63
2021/01/27 11:25:49;;;;;;;3.63;2.53;;;;;;;2.07;74.85;98712.69;5092606;28;20130;-63
2021/01/27 11:28:16;;;;;;;3.38;2.70;;;;;;;2.07;74.92;98706.66;5092646;28;20047;-63
2021/01/27 11:30:43;;;;;;;4.15;2.50;;;;;;;2.09;74.81;98697.75;5092467;28;20051;-65
2021/01/27 11:33:10;;;;;;;4.97;3.70;;;;;;;2.11;75.05;98705.41;5092705;28;20490;-65
2021/01/27 11:35:37;;;;;;;3.90;2.78;;;;;;;2.07;74.78;98696.22;5092332;28;20047;-65
2021/01/27 11:38:04;;;;;;;5.05;4.18;;;;;;;2.13;75.07;98695.69;5092483;28;20039;-65
2021/01/27 11:40:31;;;;;;;4.55;3.33;;;;;;;2.18;74.98;98683.03;5091833;28;20047;-66
2021/01/27 11:42:58;;;;;;;5.65;3.30;;;;;;;2.16;75.06;98684.94;5092451;28;20044;-65
2021/01/27 11:45:26;;;;;;;5.90;3.45;;;;;;;2.12;75.10;98671.41;5092300;28;20044;-65
2021/01/27 11:47:53;;;;;;;4.65;3.45;;;;;;;2.17;75.00;98658.75;5092428;28;20055;-65
2021/01/27 11:50:23;;;;;;;5.28;3.58;;;;;;;2.26;75.21;98651.84;5092273;28;20051;-63
2021/01/27 11:52:50;;;;;;;5.57;3.80;;;;;;;2.18;75.11;98639.50;5092352;28;20055;-65
2021/01/27 11:55:18;;;;;;;3.75;3.42;;;;;;;2.21;74.97;98639.22;5092219;28;20040;-65
2021/01/27 11:57:46;;;;;;;4.72;3.78;;;;;;;2.33;74.95;98623.41;5092194;28;20048;-65
2021/01/27 12:00:17;;;;;;;4.72;3.65;;;;;;;2.39;74.71;98626.25;5092224;28;20051;-65
2021/01/27 12:02:44;;;;;;;5.15;3.22;;;;;;;2.30;74.55;98619.28;5092237;28;20048;-65
2021/01/27 12:05:12;;;;;;;5.28;3.65;;;;;;;2.41;74.79;98613.88;5091956;28;20123;-63
2021/01/27 12:07:38;;;;;;;5.22;3.88;;;;;;;2.49;74.72;98607.94;5092949;28;20416;-64